Terminal Aerodrome Forecast
Issued by NWS Cleveland, OH

Home | Current Version | Previous Version | Text Only | Print | Product List | Glossary On
Versions: 1 2 3 4 5 6 7 8 9 10 11 12 13 14 15 16 17 18 19
570
FTUS41 KCLE 100537
TAFERI
TAF
KERI 100537Z 1006/1106 26015G22KT 2SM -SN OVC012
      TEMPO 1006/1009 3/4SM -SN OVC008
     FM101300 26010G20KT 5SM -SN OVC012
     FM101600 26012G20KT 6SM -SHSN OVC022
     FM102200 27012G20KT 3SM -SHSN BKN022=

USA.gov is the U.S. government's official web portal to all federal, state and local government web resources and services.